Time;durP1;ratioP1;P1;durP2;ratioP2;P2;SDS_P1;SDS_P2;PMS_P1;PMS_P2;Temp;Humidity;BMP_temperature;BMP_pressure;BME280_temperature;BME280_humidity;BME280_pressure;Samples;Min_cycle;Max_cycle;Signal;HPM_P1;HPM_P2
2022/08/06 00:02:25;;;;;;;;;;;;;;;19.16;71.79;98468.09;4970424;28;19926;-77
2022/08/06 00:04:56;;;;;;;;;;;;;;;19.23;71.67;98471.06;4990184;28;19921;-77
2022/08/06 00:07:25;;;;;;;;;;;;;;;18.95;72.26;98457.34;4995556;28;19922;-77
2022/08/06 00:09:55;;;;;;;;;;;;;;;18.46;70.57;98443.00;4977705;28;20025;-77
2022/08/06 00:12:28;;;;;;;;;;;;;;;18.17;70.94;98458.69;4998590;28;19922;-77
2022/08/06 00:14:58;;;;;;;;;;;;;;;18.01;71.78;98474.31;4972785;28;19929;-77
2022/08/06 00:17:30;;;;;;;;;;;;;;;18.25;72.12;98493.50;4972679;28;19984;-77
2022/08/06 00:20:01;;;;;;;;;;;;;;;18.52;73.15;98486.41;5005752;28;19968;-77
2022/08/06 00:22:29;;;;;;;;;;;;;;;18.47;71.92;98489.41;4983446;28;19972;-77
2022/08/06 00:24:57;;;;;;;;;;;;;;;18.44;73.04;98486.56;4995002;28;19957;-76
2022/08/06 00:27:25;;;;;;;;;;;;;;;18.27;72.96;98499.47;4995211;28;19922;-77
2022/08/06 00:29:56;;;;;;;;;;;;;;;18.18;72.77;98496.03;4995999;28;20376;-77
2022/08/06 00:32:33;;;;;;;;;;;;;;;18.43;69.91;98490.44;4994417;28;20454;-77
2022/08/06 00:35:01;;;;;;;;;;;;;;;18.29;68.59;98486.16;4982643;28;19922;-76
2022/08/06 00:37:34;;;;;;;;;;;;;;;18.17;66.74;98483.44;5000157;28;19925;-76
2022/08/06 00:40:22;;;;;;;;;;;;;;;18.28;68.68;98481.00;4975397;28;19976;-77
2022/08/06 00:42:51;;;;;;;;;;;;;;;18.24;67.19;98486.38;4997026;28;19929;-76
2022/08/06 00:45:22;;;;;;;;;;;;;;;17.99;66.31;98484.84;4900092;29;20430;-77
2022/08/06 00:47:56;;;;;;;;;;;;;;;17.94;65.62;98485.06;4897390;29;19935;-76
2022/08/06 00:50:30;;;;;;;;;;;;;;;17.80;63.25;98485.44;4899130;29;20309;-77
2022/08/06 00:52:58;;;;;;;;;;;;;;;17.56;64.57;98483.47;4902243;29;19926;-77
2022/08/06 00:55:26;;;;;;;;;;;;;;;17.60;64.69;98487.13;4905437;29;20294;-77
2022/08/06 00:57:59;;;;;;;;;;;;;;;17.68;65.96;98499.94;4897340;29;19923;-76
2022/08/06 01:00:26;;;;;;;;;;;;;;;17.70;65.58;98494.91;4903611;29;19934;-76
2022/08/06 01:02:58;;;;;;;;;;;;;;;17.70;66.71;98510.59;4907663;28;19922;-76
2022/08/06 01:05:26;;;;;;;;;;;;;;;17.80;66.72;98513.72;4977906;28;20393;-77
2022/08/06 01:08:14;;;;;;;;;;;;;;;17.64;66.01;98511.97;5000249;28;20016;-76
2022/08/06 01:10:46;;;;;;;;;;;;;;;17.86;61.63;98510.75;4999227;28;19926;-76
2022/08/06 01:13:16;;;;;;;;;;;;;;;17.41;62.53;98504.16;4994856;28;19925;-76
2022/08/06 01:15:51;;;;;;;;;;;;;;;17.52;63.68;98510.84;4991711;28;19922;-76
2022/08/06 01:18:39;;;;;;;;;;;;;;;17.33;62.60;98509.78;4997907;28;19928;-76
2022/08/06 01:21:10;;;;;;;;;;;;;;;17.35;65.09;98518.47;4994289;28;19922;-76
2022/08/06 01:24:03;;;;;;;;;;;;;;;17.26;63.63;98510.34;4989515;28;19922;-77
2022/08/06 01:26:35;;;;;;;;;;;;;;;17.42;67.83;98514.03;4976601;28;19961;-77
2022/08/06 01:29:05;;;;;;;;;;;;;;;17.53;66.02;98515.19;4977295;28;19932;-76
2022/08/06 01:31:44;;;;;;;;;;;;;;;17.54;66.07;98515.97;4993948;28;20315;-76
2022/08/06 01:34:15;;;;;;;;;;;;;;;17.38;65.63;98518.59;4996957;28;19999;-77
2022/08/06 01:36:48;;;;;;;;;;;;;;;17.33;65.12;98523.50;4994251;28;19930;-76
2022/08/06 01:39:18;;;;;;;;;;;;;;;17.36;63.92;98526.34;4908519;29;20386;-77
2022/08/06 01:41:49;;;;;;;;;;;;;;;17.62;65.08;98534.28;4934478;29;19989;-77
2022/08/06 01:44:24;;;;;;;;;;;;;;;17.52;65.33;98529.22;4932842;29;19969;-77
2022/08/06 01:46:55;;;;;;;;;;;;;;;17.44;64.89;98532.91;4930412;29;19972;-77
2022/08/06 01:49:25;;;;;;;;;;;;;;;17.38;65.35;98529.56;4932979;29;19923;-77
2022/08/06 01:52:13;;;;;;;;;;;;;;;17.61;65.40;98538.19;4939753;29;19966;-77
2022/08/06 01:54:44;;;;;;;;;;;;;;;17.57;66.27;98540.00;4914620;29;20360;-76
2022/08/06 01:57:13;;;;;;;;;;;;;;;17.50;65.76;98537.03;4942081;28;19926;-76
2022/08/06 01:59:50;;;;;;;;;;;;;;;16.82;66.62;98542.09;4988485;28;19921;-77
2022/08/06 02:02:20;;;;;;;;;;;;;;;17.24;64.85;98540.06;4990942;28;20380;-76
2022/08/06 02:04:49;;;;;;;;;;;;;;;17.14;65.03;98540.50;4987193;28;20226;-77
2022/08/06 02:07:23;;;;;;;;;;;;;;;17.36;66.87;98544.78;4975603;28;19980;-77
2022/08/06 02:10:11;;;;;;;;;;;;;;;17.06;66.65;98539.47;4995131;28;19925;-77
2022/08/06 02:12:39;;;;;;;;;;;;;;;16.76;66.63;98541.50;4976047;28;19929;-77
2022/08/06 02:15:10;;;;;;;;;;;;;;;16.79;66.77;98542.78;4974613;28;20321;-76
2022/08/06 02:17:40;;;;;;;;;;;;;;;17.12;65.03;98532.59;4973008;28;20027;-77
2022/08/06 02:20:31;;;;;;;;;;;;;;;17.10;65.13;98540.38;4997398;28;20265;-77
2022/08/06 02:23:04;;;;;;;;;;;;;;;17.15;66.40;98539.34;4982592;28;20313;-77
2022/08/06 02:25:34;;;;;;;;;;;;;;;16.93;66.06;98546.03;4993314;28;19921;-76
2022/08/06 02:28:03;;;;;;;;;;;;;;;17.08;66.00;98550.09;4994286;28;19937;-77
2022/08/06 02:30:37;;;;;;;;;;;;;;;17.10;64.76;98548.63;4910802;29;19977;-76
2022/08/06 02:33:09;;;;;;;;;;;;;;;16.87;65.93;98544.63;4922701;29;19927;-77
2022/08/06 02:35:39;;;;;;;;;;;;;;;16.97;64.84;98541.47;4909250;29;19923;-77
2022/08/06 02:38:08;;;;;;;;;;;;;;;17.11;64.23;98543.94;4907238;29;20014;-76
2022/08/06 02:40:38;;;;;;;;;;;;;;;17.12;64.89;98557.31;4900346;29;19923;-76
2022/08/06 02:43:07;;;;;;;;;;;;;;;17.14;65.07;98554.22;4916677;29;19931;-77
2022/08/06 02:45:37;;;;;;;;;;;;;;;17.11;66.27;98563.16;4913268;28;19933;-77
2022/08/06 02:48:06;;;;;;;;;;;;;;;17.04;65.64;98563.69;4901600;28;20016;-77
2022/08/06 02:50:38;;;;;;;;;;;;;;;16.99;65.79;98561.97;4955273;28;19923;-77
2022/08/06 02:53:07;;;;;;;;;;;;;;;16.98;66.32;98567.78;4965626;28;19945;-77
2022/08/06 02:55:52;;;;;;;;;;;;;;;16.82;67.10;98567.59;4980143;28;20037;-77
2022/08/06 02:58:20;;;;;;;;;;;;;;;16.73;66.29;98575.13;4988023;28;19930;-77
2022/08/06 03:00:57;;;;;;;;;;;;;;;16.89;65.31;98567.06;4990507;28;19926;-77
2022/08/06 03:03:26;;;;;;;;;;;;;;;16.77;66.01;98562.31;4972445;28;20012;-77
2022/08/06 03:06:02;;;;;;;;;;;;;;;16.47;66.59;98569.81;4984018;28;19925;-77
2022/08/06 03:08:30;;;;;;;;;;;;;;;16.77;66.03;98565.06;4988619;28;19945;-77
2022/08/06 03:10:58;;;;;;;;;;;;;;;16.64;66.70;98566.13;4993503;28;20404;-77
2022/08/06 03:13:25;;;;;;;;;;;;;;;16.77;66.36;98568.59;4962057;28;20289;-77
2022/08/06 03:15:58;;;;;;;;;;;;;;;16.57;68.30;98571.34;4978055;28;19961;-77
2022/08/06 03:18:27;;;;;;;;;;;;;;;16.77;66.54;98574.09;4959234;28;19922;-77
2022/08/06 03:21:01;;;;;;;;;;;;;;;16.41;67.15;98568.41;4962372;28;20039;-77
2022/08/06 03:23:29;;;;;;;;;;;;;;;16.34;67.29;98574.38;4982850;28;19945;-77
2022/08/06 03:25:57;;;;;;;;;;;;;;;16.67;66.57;98569.00;4982233;28;19955;-77
2022/08/06 03:28:28;;;;;;;;;;;;;;;16.32;67.94;98578.63;4971233;28;20046;-77
2022/08/06 03:33:51;;;;;;;;;;;;;;;16.63;67.46;98587.25;4985476;28;20324;-76
2022/08/06 03:36:21;;;;;;;;;;;;;;;16.34;68.05;98587.31;4978123;28;20327;-77
2022/08/06 03:38:54;;;;;;;;;;;;;;;16.44;68.10;98590.47;4933928;29;20370;-76
2022/08/06 03:41:23;;;;;;;;;;;;;;;16.55;68.47;98593.59;4934537;29;19922;-77
2022/08/06 03:43:58;;;;;;;;;;;;;;;16.64;67.39;98599.03;4937395;29;20401;-76
2022/08/06 03:46:33;;;;;;;;;;;;;;;16.54;67.44;98604.91;4934568;29;19929;-77
2022/08/06 03:49:02;;;;;;;;;;;;;;;16.42;67.52;98608.41;4914342;29;20384;-77
2022/08/06 03:51:30;;;;;;;;;;;;;;;16.10;68.38;98612.63;4927681;29;19930;-76
2022/08/06 03:54:18;;;;;;;;;;;;;;;16.39;68.16;98609.84;4932456;29;19962;-76
2022/08/06 03:56:58;;;;;;;;;;;;;;;16.47;67.17;98630.16;4948059;28;19995;-76
2022/08/06 03:59:26;;;;;;;;;;;;;;;16.46;67.25;98628.53;4995870;28;19933;-76
2022/08/06 04:02:00;;;;;;;;;;;;;;;16.40;67.22;98624.34;4992977;28;20300;-76
2022/08/06 04:04:53;;;;;;;;;;;;;;;16.09;68.63;98627.47;4990090;28;19922;-76
2022/08/06 04:07:21;;;;;;;;;;;;;;;16.09;67.67;98622.78;4995812;28;19956;-77
2022/08/06 04:09:50;;;;;;;;;;;;;;;16.13;68.33;98631.94;4976054;28;20306;-77
2022/08/06 04:12:30;;;;;;;;;;;;;;;16.16;67.55;98633.22;4971095;28;20321;-77
2022/08/06 04:15:10;;;;;;;;;;;;;;;15.75;68.89;98626.44;4995593;28;19922;-77
2022/08/06 04:17:42;;;;;;;;;;;;;;;16.11;67.91;98627.91;4978485;28;19956;-77
2022/08/06 04:20:11;;;;;;;;;;;;;;;15.88;68.20;98635.59;4977536;28;19932;-76
2022/08/06 04:22:40;;;;;;;;;;;;;;;16.08;68.61;98639.53;4978427;28;20374;-77
2022/08/06 04:25:28;;;;;;;;;;;;;;;15.68;69.14;98637.91;4995696;28;19951;-76
2022/08/06 04:27:56;;;;;;;;;;;;;;;16.11;68.75;98642.44;4992951;28;19936;-77
2022/08/06 04:30:26;;;;;;;;;;;;;;;16.11;67.47;98649.84;4989108;28;20064;-77
2022/08/06 04:32:56;;;;;;;;;;;;;;;16.11;68.27;98650.66;4988718;28;19922;-77
2022/08/06 04:35:28;;;;;;;;;;;;;;;16.04;67.88;98658.59;4999081;28;19932;-76
2022/08/06 04:38:17;;;;;;;;;;;;;;;16.15;67.58;98659.03;4988277;28;19959;-76
2022/08/06 04:40:55;;;;;;;;;;;;;;;16.09;68.08;98666.63;4971062;28;20366;-77
2022/08/06 04:43:26;;;;;;;;;;;;;;;16.18;67.99;98670.13;4975886;28;20314;-77
2022/08/06 04:46:05;;;;;;;;;;;;;;;16.34;67.73;98675.03;4978627;28;19956;-77
2022/08/06 04:48:45;;;;;;;;;;;;;;;16.30;67.54;98680.41;4995289;28;19955;-77
2022/08/06 04:51:14;;;;;;;;;;;;;;;16.27;67.53;98680.25;4991477;28;19932;-77
2022/08/06 04:53:43;;;;;;;;;;;;;;;16.09;67.44;98682.28;4997071;28;20446;-77
2022/08/06 04:56:23;;;;;;;;;;;;;;;16.23;68.24;98688.31;4980794;28;20383;-77
2022/08/06 04:58:51;;;;;;;;;;;;;;;16.37;68.25;98690.84;4997977;28;19936;-76
2022/08/06 05:01:19;;;;;;;;;;;;;;;16.29;67.56;98694.44;4981797;28;19926;-77
2022/08/06 05:03:51;;;;;;;;;;;;;;;16.30;67.09;98688.63;4995236;28;20011;-78
2022/08/06 05:06:42;;;;;;;;;;;;;;;16.29;67.87;98691.69;4995822;28;19979;-78
2022/08/06 05:09:18;;;;;;;;;;;;;;;15.92;67.86;98700.34;4991420;28;20294;-77
2022/08/06 05:11:52;;;;;;;;;;;;;;;16.30;67.65;98702.34;4993118;28;19931;-79
2022/08/06 05:14:50;;;;;;;;;;;;;;;16.03;66.68;98700.81;4993769;28;20339;-79
2022/08/06 05:17:24;;;;;;;;;;;;;;;15.80;67.59;98702.19;4976801;28;19936;-79
2022/08/06 05:19:54;;;;;;;;;;;;;;;16.01;66.52;98707.75;4991359;28;20323;-79
2022/08/06 05:22:22;;;;;;;;;;;;;;;15.70;67.39;98703.31;4976104;28;19937;-78
2022/08/06 05:25:37;;;;;;;;;;;;;;;15.73;66.59;98710.09;4974206;28;20406;-78
2022/08/06 05:28:06;;;;;;;;;;;;;;;15.86;67.25;98709.91;4988711;28;20382;-79
2022/08/06 05:30:42;;;;;;;;;;;;;;;15.59;66.78;98719.25;4974894;28;19925;-83
2022/08/06 05:33:12;;;;;;;;;;;;;;;15.73;66.55;98712.84;4911301;29;20069;-78
2022/08/06 05:35:45;;;;;;;;;;;;;;;15.76;66.88;98717.66;4899132;29;19938;-77
2022/08/06 05:38:29;;;;;;;;;;;;;;;15.47;66.91;98721.88;4915638;29;19944;-81
2022/08/06 05:40:59;;;;;;;;;;;;;;;15.68;65.46;98722.03;4907610;29;19987;-82
2022/08/06 05:43:28;;;;;;;;;;;;;;;15.86;65.14;98712.63;4913384;29;20250;-81
2022/08/06 05:46:19;;;;;;;;;;;;;;;15.97;64.82;98724.06;4928941;29;19961;-79
2022/08/06 05:48:50;;;;;;;;;;;;;;;15.65;65.66;98734.44;4917319;29;20064;-80
2022/08/06 05:51:26;;;;;;;;;;;;;;;16.05;64.89;98731.47;4959019;28;19960;-80
2022/08/06 05:54:12;;;;;;;;;;;;;;;16.11;64.28;98730.16;4992805;28;19937;-79
2022/08/06 05:56:42;;;;;;;;;;;;;;;16.29;63.89;98735.56;4976139;28;19932;-82
2022/08/06 05:59:11;;;;;;;;;;;;;;;16.11;63.09;98743.84;4975532;28;19959;-81
2022/08/06 06:01:58;;;;;;;;;;;;;;;16.27;62.55;98748.81;4993470;28;20406;-80
2022/08/06 06:07:41;;;;;;;;;;;;;;;16.34;61.60;98752.63;4991984;28;20042;-80
2022/08/06 06:10:29;;;;;;;;;;;;;;;16.55;62.29;98752.69;4992059;28;19939;-80
2022/08/06 06:13:00;;;;;;;;;;;;;;;16.45;59.64;98750.31;4975863;28;19929;-82
2022/08/06 06:15:30;;;;;;;;;;;;;;;16.57;58.57;98744.97;4991839;28;19964;-83
2022/08/06 06:18:20;;;;;;;;;;;;;;;16.72;56.92;98755.41;4987850;28;19925;-80
2022/08/06 06:21:04;;;;;;;;;;;;;;;16.71;57.06;98751.03;4992566;28;20051;-80
2022/08/06 06:24:09;;;;;;;;;;;;;;;16.57;54.45;98750.44;4996553;28;19965;-80
2022/08/06 06:26:40;;;;;;;;;;;;;;;16.47;54.58;98759.84;4974738;28;19956;-81
2022/08/06 06:29:09;;;;;;;;;;;;;;;16.36;53.98;98758.59;4973895;28;19956;-80
2022/08/06 06:31:43;;;;;;;;;;;;;;;16.64;53.07;98756.22;4982397;28;19932;-81
2022/08/06 06:34:35;;;;;;;;;;;;;;;16.52;53.46;98756.13;4972323;28;20019;-81
2022/08/06 06:37:04;;;;;;;;;;;;;;;16.64;53.21;98758.16;4979551;28;19925;-76
2022/08/06 06:39:33;;;;;;;;;;;;;;;16.64;52.87;98755.41;4947772;29;19939;-77
2022/08/06 06:42:10;;;;;;;;;;;;;;;16.82;52.85;98764.38;4932054;28;20044;-76
2022/08/06 06:44:39;;;;;;;;;;;;;;;16.54;52.38;98770.31;4939571;28;19968;-77
2022/08/06 06:47:29;;;;;;;;;;;;;;;16.53;51.65;98770.63;4943051;28;19996;-76
2022/08/06 06:50:04;;;;;;;;;;;;;;;16.43;51.35;98771.81;4945860;28;19953;-77
2022/08/06 06:52:34;;;;;;;;;;;;;;;16.44;51.33;98776.94;4936093;29;19992;-77
2022/08/06 06:55:04;;;;;;;;;;;;;;;16.72;50.77;98777.38;4946439;28;19955;-76
2022/08/06 06:57:44;;;;;;;;;;;;;;;16.52;50.58;98778.06;4971679;28;19932;-75
2022/08/06 07:00:13;;;;;;;;;;;;;;;16.44;50.71;98781.63;4991701;28;19975;-74
2022/08/06 07:03:01;;;;;;;;;;;;;;;16.49;50.83;98784.19;4989732;28;19938;-74
2022/08/06 07:05:29;;;;;;;;;;;;;;;16.49;50.89;98778.72;5000450;28;20302;-74
2022/08/06 07:08:18;;;;;;;;;;;;;;;16.50;51.42;98791.28;4990834;28;20395;-76
2022/08/06 07:10:57;;;;;;;;;;;;;;;16.60;50.67;98790.94;4973361;28;19975;-75
2022/08/06 07:13:28;;;;;;;;;;;;;;;16.61;50.11;98780.75;4978504;28;19963;-74
2022/08/06 07:16:24;;;;;;;;;;;;;;;16.77;50.21;98790.06;4973883;28;19987;-75
2022/08/06 07:19:05;;;;;;;;;;;;;;;16.73;50.26;98787.19;4971579;28;19938;-74
2022/08/06 07:21:37;;;;;;;;;;;;;;;16.84;49.08;98786.81;4975405;28;20019;-75
2022/08/06 07:24:10;;;;;;;;;;;;;;;16.62;49.64;98788.69;4990297;28;20483;-76
2022/08/06 07:26:59;;;;;;;;;;;;;;;16.69;49.73;98780.72;4995483;28;19951;-78
2022/08/06 07:32:27;;;;;;;;;;;;;;;16.80;48.30;98788.63;4909046;29;19941;-78
2022/08/06 07:34:59;;;;;;;;;;;;;;;16.73;48.09;98789.94;4907691;29;19928;-80
2022/08/06 07:40:22;;;;;;;;;;;;;;;16.98;47.30;98796.41;4910568;29;19969;-76
2022/08/06 07:42:52;;;;;;;;;;;;;;;17.04;46.81;98805.25;4912249;29;19933;-79
2022/08/06 07:45:24;;;;;;;;;;;;;;;16.87;47.88;98792.44;4915778;29;19941;-78
2022/08/06 07:47:52;;;;;;;;;;;;;;;17.11;47.62;98800.06;4960819;28;19948;-79
2022/08/06 07:50:21;;;;;;;;;;;;;;;17.17;47.36;98798.72;4995889;28;20028;-79
2022/08/06 07:52:50;;;;;;;;;;;;;;;17.22;47.45;98797.72;4998803;28;20460;-78
2022/08/06 07:55:19;;;;;;;;;;;;;;;17.38;46.70;98803.44;5001438;28;20052;-83
2022/08/06 07:57:46;;;;;;;;;;;;;;;17.62;46.48;98806.31;4998366;28;20023;-80
2022/08/06 08:00:24;;;;;;;;;;;;;;;17.61;45.73;98815.69;4977773;28;19982;-89
2022/08/06 08:08:31;;;;;;;;;;;;;;;17.56;46.32;98821.38;4907415;29;20001;-80
2022/08/06 08:11:02;;;;;;;;;;;;;;;17.77;46.47;98822.22;4910260;29;19933;-77
2022/08/06 08:13:32;;;;;;;;;;;;;;;17.72;46.22;98830.66;4913718;29;20404;-79
2022/08/06 08:16:11;;;;;;;;;;;;;;;17.82;45.54;98818.47;4906787;29;20412;-79
2022/08/06 08:18:39;;;;;;;;;;;;;;;17.85;45.72;98822.50;4910058;29;19943;-81
2022/08/06 08:21:07;;;;;;;;;;;;;;;17.95;45.52;98813.81;4908228;29;19931;-79
2022/08/06 08:23:36;;;;;;;;;;;;;;;17.89;45.79;98826.16;4908321;29;20422;-78
2022/08/06 08:26:11;;;;;;;;;;;;;;;17.90;45.49;98822.28;4934989;28;19932;-81
2022/08/06 08:28:39;;;;;;;;;;;;;;;18.03;45.25;98815.69;5004069;28;19960;-81
2022/08/06 08:31:13;;;;;;;;;;;;;;;18.15;46.34;98815.72;4975929;28;22991;-80
2022/08/06 08:33:47;;;;;;;;;;;;;;;18.15;44.47;98814.91;5002194;28;19964;-81
2022/08/06 08:36:14;;;;;;;;;;;;;;;17.99;44.85;98812.78;4999873;28;20060;-82
2022/08/06 08:38:42;;;;;;;;;;;;;;;18.12;45.06;98813.66;5001192;28;20290;-81
2022/08/06 08:41:14;;;;;;;;;;;;;;;18.15;43.98;98814.91;5002781;28;19925;-81
2022/08/06 08:43:44;;;;;;;;;;;;;;;18.26;44.77;98819.66;5007673;28;20003;-78
2022/08/06 08:46:29;;;;;;;;;;;;;;;18.31;44.05;98824.13;4978635;28;19983;-78
2022/08/06 08:48:59;;;;;;;;;;;;;;;18.24;44.31;98810.94;4980367;28;19991;-79
2022/08/06 08:51:27;;;;;;;;;;;;;;;18.56;44.48;98812.03;4972643;28;19941;-79
2022/08/06 08:53:58;;;;;;;;;;;;;;;18.52;44.09;98807.56;4982464;28;19995;-78
2022/08/06 08:56:26;;;;;;;;;;;;;;;18.60;44.05;98812.16;4994545;28;20035;-78
2022/08/06 08:59:13;;;;;;;;;;;;;;;18.61;43.58;98811.00;4987412;28;20348;-77
2022/08/06 09:02:07;;;;;;;;;;;;;;;18.69;44.08;98810.13;4995330;28;19963;-77
2022/08/06 09:04:40;;;;;;;;;;;;;;;18.78;42.86;98821.03;4990160;28;20071;-78
2022/08/06 09:07:08;;;;;;;;;;;;;;;18.73;43.73;98813.78;4976936;28;19943;-78
2022/08/06 09:09:37;;;;;;;;;;;;;;;18.64;43.43;98813.06;4988378;28;19983;-76
2022/08/06 09:12:06;;;;;;;;;;;;;;;18.75;43.02;98810.69;4991755;28;20349;-77
2022/08/06 09:15:11;;;;;;;;;;;;;;;18.94;43.70;98812.88;4998059;28;20084;-76
2022/08/06 09:17:44;;;;;;;;;;;;;;;18.94;42.57;98813.69;4978631;28;19980;-77
2022/08/06 09:20:32;;;;;;;;;;;;;;;18.95;43.73;98811.72;4988465;28;19983;-85
2022/08/06 09:23:00;;;;;;;;;;;;;;;18.89;42.98;98815.88;4985472;28;19944;-77
2022/08/06 09:25:42;;;;;;;;;;;;;;;18.91;42.56;98808.88;4989353;28;19981;-77
2022/08/06 09:28:32;;;;;;;;;;;;;;;18.96;42.07;98810.59;4975494;28;20339;-78
2022/08/06 09:31:05;;;;;;;;;;;;;;;19.13;42.67;98818.63;4987486;28;19971;-78
2022/08/06 09:33:39;;;;;;;;;;;;;;;19.25;41.79;98806.78;4972021;28;19943;-77
2022/08/06 09:36:27;;;;;;;;;;;;;;;19.17;41.14;98821.47;4997871;28;19929;-77
2022/08/06 09:38:58;;;;;;;;;;;;;;;19.24;41.54;98817.00;4987590;28;19933;-78
2022/08/06 09:41:26;;;;;;;;;;;;;;;19.17;41.73;98811.25;4934687;29;20014;-78
2022/08/06 09:43:56;;;;;;;;;;;;;;;19.17;42.01;98802.19;4921940;29;19972;-77
2022/08/06 09:46:37;;;;;;;;;;;;;;;19.23;41.96;98804.38;4936333;29;19957;-78
2022/08/06 09:49:07;;;;;;;;;;;;;;;19.26;42.18;98792.66;4938080;28;19952;-78
2022/08/06 09:52:13;;;;;;;;;;;;;;;19.36;43.02;98800.44;4931959;29;20357;-79
2022/08/06 09:54:42;;;;;;;;;;;;;;;19.18;41.85;98795.56;4932109;29;19956;-78
2022/08/06 09:57:10;;;;;;;;;;;;;;;19.42;42.17;98801.00;4934385;29;20037;-77
2022/08/06 09:59:45;;;;;;;;;;;;;;;19.44;41.37;98803.41;4967360;28;20399;-78
2022/08/06 10:02:20;;;;;;;;;;;;;;;19.62;41.36;98802.03;4986525;28;19926;-78
2022/08/06 10:04:55;;;;;;;;;;;;;;;19.78;41.11;98797.38;4995267;28;19973;-78
2022/08/06 10:07:29;;;;;;;;;;;;;;;19.84;40.73;98801.47;4993050;28;19925;-78
2022/08/06 10:10:09;;;;;;;;;;;;;;;19.99;41.08;98796.38;4974572;28;19933;-76
2022/08/06 10:12:40;;;;;;;;;;;;;;;20.05;41.40;98800.47;4996282;28;19993;-74
2022/08/06 10:15:08;;;;;;;;;;;;;;;19.83;40.51;98799.88;4992820;28;19933;-77
2022/08/06 10:17:38;;;;;;;;;;;;;;;19.80;40.56;98806.09;4985261;28;19956;-76
2022/08/06 10:20:19;;;;;;;;;;;;;;;19.73;40.87;98799.56;4982470;28;19964;-77
2022/08/06 10:22:54;;;;;;;;;;;;;;;19.86;40.42;98803.88;4993699;28;19973;-75
2022/08/06 10:25:25;;;;;;;;;;;;;;;20.06;39.92;98796.56;4994408;28;19926;-76
2022/08/06 10:27:57;;;;;;;;;;;;;;;20.01;39.77;98805.88;4988601;28;20024;-75
2022/08/06 10:30:29;;;;;;;;;;;;;;;20.08;39.54;98810.78;4988878;28;19940;-76
2022/08/06 10:33:06;;;;;;;;;;;;;;;20.02;39.66;98809.44;4984097;28;19930;-76
2022/08/06 10:35:36;;;;;;;;;;;;;;;19.93;39.58;98804.09;4974388;28;19925;-76
2022/08/06 10:38:13;;;;;;;;;;;;;;;19.99;39.61;98807.41;4998755;28;19929;-76
2022/08/06 10:40:42;;;;;;;;;;;;;;;20.04;39.99;98793.34;4987123;28;19938;-77
2022/08/06 10:43:10;;;;;;;;;;;;;;;20.22;39.20;98800.16;4983269;28;20002;-75
2022/08/06 10:45:39;;;;;;;;;;;;;;;20.34;39.10;98797.31;4998251;28;19971;-77
2022/08/06 10:48:17;;;;;;;;;;;;;;;20.44;40.31;98793.22;4971859;28;19988;-76
2022/08/06 10:51:06;;;;;;;;;;;;;;;20.47;39.14;98803.59;4987989;28;19933;-76
2022/08/06 10:53:34;;;;;;;;;;;;;;;20.33;38.51;98790.19;4988399;28;19926;-76
2022/08/06 10:56:22;;;;;;;;;;;;;;;20.52;38.84;98791.50;4987524;28;19963;-76
2022/08/06 10:58:54;;;;;;;;;;;;;;;20.26;38.09;98795.53;4953967;28;19986;-77
2022/08/06 11:01:25;;;;;;;;;;;;;;;20.40;38.92;98789.59;4954260;28;19971;-78
2022/08/06 11:04:10;;;;;;;;;;;;;;;20.32;39.21;98783.06;4933458;28;19936;-77
2022/08/06 11:06:57;;;;;;;;;;;;;;;20.19;39.25;98778.81;4952893;28;19943;-77
2022/08/06 11:09:32;;;;;;;;;;;;;;;20.30;38.47;98779.88;4955294;28;20044;-77
2022/08/06 11:12:29;;;;;;;;;;;;;;;20.38;38.14;98775.34;4954088;28;19934;-77
2022/08/06 11:14:59;;;;;;;;;;;;;;;20.44;37.54;98773.09;4958570;28;20397;-77
2022/08/06 11:17:42;;;;;;;;;;;;;;;20.29;37.23;98775.50;4963017;28;19987;-76
2022/08/06 11:20:25;;;;;;;;;;;;;;;20.55;37.57;98771.44;4997083;28;19940;-77
2022/08/06 11:22:54;;;;;;;;;;;;;;;20.64;37.22;98778.41;4976059;28;19984;-77
2022/08/06 11:25:41;;;;;;;;;;;;;;;20.82;38.50;98778.81;4998574;28;19953;-77
2022/08/06 11:28:11;;;;;;;;;;;;;;;20.72;36.76;98771.09;4986302;28;19936;-77
2022/08/06 11:30:41;;;;;;;;;;;;;;;20.68;36.84;98772.97;4998157;28;19926;-77
2022/08/06 11:33:13;;;;;;;;;;;;;;;20.81;36.51;98766.16;4998429;28;20375;-77
2022/08/06 11:35:43;;;;;;;;;;;;;;;20.88;36.71;98765.56;4996911;28;19926;-77
2022/08/06 11:38:33;;;;;;;;;;;;;;;21.06;36.41;98760.44;4999446;28;20000;-78
2022/08/06 11:41:08;;;;;;;;;;;;;;;21.34;36.66;98749.25;4995258;28;19984;-78
2022/08/06 11:43:48;;;;;;;;;;;;;;;21.34;36.25;98758.31;4996926;28;19932;-78
2022/08/06 11:46:30;;;;;;;;;;;;;;;21.31;35.39;98761.84;4991315;28;19930;-83
2022/08/06 11:49:13;;;;;;;;;;;;;;;21.25;35.14;98766.00;5000114;28;19933;-78
2022/08/06 11:51:41;;;;;;;;;;;;;;;21.27;35.28;98754.59;4991254;28;20009;-79
2022/08/06 11:54:11;;;;;;;;;;;;;;;21.34;34.63;98755.56;4994933;28;20015;-78
2022/08/06 11:56:58;;;;;;;;;;;;;;;21.27;34.56;98760.91;4999202;28;19979;-79
2022/08/06 11:59:27;;;;;;;;;;;;;;;21.28;34.74;98762.50;4991028;28;19926;-79
2022/08/06 12:01:55;;;;;;;;;;;;;;;21.41;34.83;98757.69;4984653;28;20269;-77
2022/08/06 12:04:42;;;;;;;;;;;;;;;21.38;34.86;98759.22;4994711;28;19941;-78
2022/08/06 12:07:17;;;;;;;;;;;;;;;21.50;35.21;98746.41;5003972;28;19930;-78
2022/08/06 12:09:45;;;;;;;;;;;;;;;21.42;34.34;98746.28;4979875;28;19929;-77
2022/08/06 12:12:32;;;;;;;;;;;;;;;21.51;34.14;98739.72;5004088;28;19934;-78
2022/08/06 12:15:02;;;;;;;;;;;;;;;21.55;33.85;98749.69;4990198;28;20396;-77
2022/08/06 12:17:33;;;;;;;;;;;;;;;21.53;33.75;98749.25;4997762;28;19957;-78
2022/08/06 12:20:12;;;;;;;;;;;;;;;21.54;33.05;98739.00;4996700;28;19932;-74
2022/08/06 12:23:00;;;;;;;;;;;;;;;21.54;32.61;98742.56;4999525;28;19940;-75
2022/08/06 12:25:31;;;;;;;;;;;;;;;21.59;33.09;98749.78;4978929;28;20422;-78
2022/08/06 12:28:00;;;;;;;;;;;;;;;21.59;34.07;98736.75;4981992;28;20306;-76
2022/08/06 12:30:29;;;;;;;;;;;;;;;21.57;33.24;98730.78;4978422;28;20029;-74
2022/08/06 12:33:04;;;;;;;;;;;;;;;21.53;34.54;98729.09;4968796;28;19944;-76
2022/08/06 12:35:48;;;;;;;;;;;;;;;21.45;34.51;98722.63;4956628;28;19930;-74
2022/08/06 12:38:19;;;;;;;;;;;;;;;21.49;33.48;98734.56;4987420;28;19991;-78
2022/08/06 12:40:55;;;;;;;;;;;;;;;21.70;33.52;98731.44;4975729;28;20060;-80
2022/08/06 12:43:24;;;;;;;;;;;;;;;21.72;32.67;98731.84;4977658;28;19941;-79
2022/08/06 12:46:15;;;;;;;;;;;;;;;21.81;32.76;98724.13;4973839;28;19948;-79
2022/08/06 12:48:47;;;;;;;;;;;;;;;21.76;33.04;98729.97;4981547;28;19956;-79
2022/08/06 12:51:15;;;;;;;;;;;;;;;21.74;32.90;98715.72;4979941;28;20425;-79
2022/08/06 12:53:47;;;;;;;;;;;;;;;21.77;32.46;98722.47;4975942;28;19983;-78
2022/08/06 12:56:15;;;;;;;;;;;;;;;21.94;32.68;98703.44;4877488;29;19965;-79
2022/08/06 12:58:58;;;;;;;;;;;;;;;22.00;34.14;98708.66;4872991;29;19939;-78
2022/08/06 13:01:28;;;;;;;;;;;;;;;21.92;33.33;98703.00;4879504;29;20259;-79
2022/08/06 13:04:17;;;;;;;;;;;;;;;21.98;32.44;98707.06;4874977;29;20445;-77
2022/08/06 13:09:41;;;;;;;;;;;;;;;21.98;32.58;98696.00;4862267;29;19928;-79
2022/08/06 13:12:30;;;;;;;;;;;;;;;22.32;32.85;98709.25;4874613;29;20014;-79
2022/08/06 13:15:18;;;;;;;;;;;;;;;22.10;32.67;98692.28;4957224;28;19985;-79
2022/08/06 13:18:15;;;;;;;;;;;;;;;22.40;32.17;98695.16;4971390;28;20032;-79
2022/08/06 13:21:17;;;;;;;;;;;;;;;22.14;31.09;98692.34;4976397;28;19937;-79
2022/08/06 13:23:46;;;;;;;;;;;;;;;22.26;31.55;98691.34;4981335;28;19949;-78
2022/08/06 13:26:15;;;;;;;;;;;;;;;22.35;32.12;98689.13;4982225;28;19947;-79
2022/08/06 13:29:08;;;;;;;;;;;;;;;22.51;33.81;98692.56;4985969;28;19948;-78
2022/08/06 13:32:24;;;;;;;;;;;;;;;22.26;31.79;98683.84;4999552;28;20313;-79
2022/08/06 13:35:01;;;;;;;;;;;;;;;22.49;31.46;98681.88;4976690;28;20379;-78
2022/08/06 13:37:54;;;;;;;;;;;;;;;22.47;30.47;98681.41;4974746;28;19936;-78
2022/08/06 13:40:44;;;;;;;;;;;;;;;22.48;31.75;98673.94;4997683;28;20556;-79
2022/08/06 13:43:14;;;;;;;;;;;;;;;22.60;33.61;98682.03;4996249;28;19996;-79
2022/08/06 13:46:06;;;;;;;;;;;;;;;22.56;32.70;98669.28;4997419;28;21411;-78
2022/08/06 13:48:34;;;;;;;;;;;;;;;22.34;31.10;98674.50;4981102;28;20316;-78
2022/08/06 13:51:07;;;;;;;;;;;;;;;22.36;33.13;98677.69;4993086;28;19973;-77